createdAt,value
2023-03-13T00:02:26.658Z,99548.81
2023-03-13T00:04:54.920Z,99547.78
2023-03-13T00:07:22.978Z,99547.47
2023-03-13T00:09:52.362Z,99533.09
2023-03-13T00:12:20.393Z,99533.91
2023-03-13T00:14:48.299Z,99533.91
2023-03-13T00:17:16.673Z,99514.88
2023-03-13T00:19:44.659Z,99506.72
2023-03-13T00:22:12.763Z,99481.94
2023-03-13T00:24:40.790Z,99484.72
2023-03-13T00:27:10.347Z,99490.44
2023-03-13T00:29:38.996Z,99479.84
2023-03-13T00:32:07.239Z,99470.31
2023-03-13T00:34:35.316Z,99468.69
2023-03-13T00:37:03.308Z,99485.53
2023-03-13T00:39:31.274Z,99469.78
2023-03-13T00:42:03.999Z,99468.97
2023-03-13T00:44:33.547Z,99467.03
2023-03-13T00:47:01.636Z,99474.63
2023-03-13T00:49:29.639Z,99458.63
2023-03-13T00:51:57.618Z,99444.44
2023-03-13T00:54:25.744Z,99452.91
2023-03-13T00:56:53.925Z,99440.94
2023-03-13T00:59:21.939Z,99453.44
2023-03-13T01:01:51.325Z,99444.75
2023-03-13T01:04:19.432Z,99442.28
2023-03-13T01:06:47.431Z,99447.75
2023-03-13T01:09:17.308Z,99442.28
2023-03-13T01:11:46.413Z,99439.00
2023-03-13T01:14:16.624Z,99431.41
2023-03-13T01:16:44.714Z,99423.53
2023-03-13T01:19:16.416Z,99430.06
2023-03-13T01:21:46.732Z,99433.03
2023-03-13T01:24:15.002Z,99434.66
2023-03-13T01:26:44.817Z,99427.59
2023-03-13T01:29:12.907Z,99448.56
2023-03-13T01:31:40.979Z,99456.97
2023-03-13T01:34:09.253Z,99448.53
2023-03-13T01:36:39.022Z,99441.44
2023-03-13T01:39:07.623Z,99441.44
2023-03-13T01:41:35.999Z,99451.78
2023-03-13T01:44:04.663Z,99429.44
2023-03-13T01:46:38.946Z,99439.81
2023-03-13T01:49:11.128Z,99437.63
2023-03-13T01:51:54.614Z,99414.22
2023-03-13T01:54:26.124Z,99401.44
2023-03-13T01:56:58.235Z,99401.69
2023-03-13T01:59:29.754Z,99400.91
2023-03-13T02:02:00.638Z,99392.44
2023-03-13T02:04:31.477Z,99371.22
2023-03-13T02:07:03.842Z,99359.81
2023-03-13T02:09:34.724Z,99371.78
2023-03-13T02:12:08.340Z,99369.34
2023-03-13T02:14:39.071Z,99366.34
2023-03-13T02:17:08.451Z,99381.31
2023-03-13T02:19:41.393Z,99372.09
2023-03-13T02:22:21.030Z,99378.88
2023-03-13T02:24:57.703Z,99381.84
2023-03-13T02:27:27.980Z,99373.94
2023-03-13T02:29:56.526Z,99356.81
2023-03-13T02:32:25.044Z,99357.34
2023-03-13T02:34:57.613Z,99351.34
2023-03-13T02:37:28.482Z,99346.72
2023-03-13T02:39:59.965Z,99338.25
2023-03-13T02:42:30.546Z,99330.38
2023-03-13T02:44:58.837Z,99333.34
2023-03-13T02:47:27.717Z,99332.81
2023-03-13T02:49:56.471Z,99310.22
2023-03-13T02:52:27.398Z,99317.78
2023-03-13T02:55:01.697Z,99325.09
2023-03-13T02:57:31.903Z,99309.91
2023-03-13T02:59:59.911Z,99316.41
2023-03-13T03:02:28.529Z,99299.78
2023-03-13T03:04:56.628Z,99293.84
2023-03-13T03:07:24.677Z,99291.13
2023-03-13T03:09:53.456Z,99287.28
2023-03-13T03:12:22.479Z,99291.91
2023-03-13T03:14:51.828Z,99298.97
2023-03-13T03:17:19.964Z,99300.88
2023-03-13T03:19:48.210Z,99297.91
2023-03-13T03:22:16.178Z,99292.97
2023-03-13T03:24:44.129Z,99292.19
2023-03-13T03:27:12.116Z,99286.72
2023-03-13T03:29:47.253Z,99269.03
2023-03-13T03:32:16.768Z,99272.31
2023-03-13T03:34:44.728Z,99270.69
2023-03-13T03:37:12.829Z,99269.56
2023-03-13T03:39:40.901Z,99273.09
2023-03-13T03:42:09.661Z,99285.63
2023-03-13T03:44:38.632Z,99258.97
2023-03-13T03:47:07.224Z,99257.63
2023-03-13T03:49:40.977Z,99249.72
2023-03-13T03:52:11.552Z,99260.31
2023-03-13T03:54:42.237Z,99251.88
2023-03-13T03:57:10.284Z,99241.56
2023-03-13T03:59:39.485Z,99240.47
2023-03-13T04:02:09.902Z,99239.66
2023-03-13T04:04:37.996Z,99241.03
2023-03-13T04:07:11.737Z,99242.94
2023-03-13T04:09:41.024Z,99253.78
2023-03-13T04:12:11.595Z,99280.19
2023-03-13T04:14:43.974Z,99276.38
2023-03-13T04:17:14.870Z,99268.22
2023-03-13T04:19:46.972Z,99264.69
2023-03-13T04:22:16.556Z,99281.84
2023-03-13T04:24:49.875Z,99286.22
2023-03-13T04:27:18.842Z,99269.63
2023-03-13T04:29:47.915Z,99269.34
2023-03-13T04:32:34.539Z,99268.00
2023-03-13T04:35:21.212Z,99259.91
2023-03-13T04:38:13.315Z,99254.19
2023-03-13T04:40:53.400Z,99256.13
2023-03-13T04:43:33.159Z,99239.78
2023-03-13T04:46:21.530Z,99239.50
2023-03-13T04:49:11.320Z,99229.13
2023-03-13T04:52:14.545Z,99220.75
2023-03-13T04:55:02.347Z,99217.47
2023-03-13T04:57:42.074Z,99214.47
2023-03-13T05:00:32.693Z,99195.97
2023-03-13T05:03:19.146Z,99185.94
2023-03-13T05:05:54.470Z,99184.03
2023-03-13T05:08:54.240Z,99193.00
2023-03-13T05:11:26.311Z,99188.94
2023-03-13T05:14:29.654Z,99190.84
2023-03-13T05:17:32.303Z,99207.41
2023-03-13T05:20:19.593Z,99189.47
2023-03-13T05:22:53.707Z,99193.81
2023-03-13T05:25:46.621Z,99207.69
2023-03-13T05:28:48.082Z,99197.34
2023-03-13T05:31:42.212Z,99203.63
2023-03-13T05:34:26.419Z,99194.34
2023-03-13T05:37:14.814Z,99196.50
2023-03-13T05:39:45.802Z,99196.22
2023-03-13T05:42:32.410Z,99188.88
2023-03-13T05:45:19.997Z,99184.22
2023-03-13T05:47:59.370Z,99184.78
2023-03-13T05:50:46.215Z,99189.41
2023-03-13T05:53:24.159Z,99177.44
2023-03-13T05:56:13.689Z,99160.09
2023-03-13T05:58:41.666Z,99188.31
2023-03-13T06:01:33.861Z,99186.94
2023-03-13T06:04:11.053Z,99187.78
2023-03-13T06:06:40.980Z,99198.09
2023-03-13T06:09:11.065Z,99188.59
2023-03-13T06:11:39.370Z,99216.03
2023-03-13T06:14:07.401Z,99202.72
2023-03-13T06:16:45.394Z,99222.00
2023-03-13T06:19:19.345Z,99219.56
2023-03-13T06:21:47.272Z,99200.22
2023-03-13T06:24:15.217Z,99187.19
2023-03-13T06:26:43.245Z,99203.75
2023-03-13T06:29:11.514Z,99184.72
2023-03-13T06:31:39.662Z,99184.44
2023-03-13T06:34:12.036Z,99186.63
2023-03-13T06:36:40.174Z,99185.00
2023-03-13T06:39:08.350Z,99200.75
2023-03-13T06:41:36.689Z,99173.03
2023-03-13T06:44:05.092Z,99173.59
2023-03-13T06:46:33.206Z,99188.28
2023-03-13T06:49:04.624Z,99175.22
2023-03-13T06:51:34.513Z,99162.72
2023-03-13T06:54:03.067Z,99187.19
2023-03-13T06:56:31.188Z,99160.81
2023-03-13T06:59:00.120Z,99167.88
2023-03-13T07:01:28.301Z,99171.41
2023-03-13T07:03:56.584Z,99162.19
2023-03-13T07:06:24.750Z,99176.91
2023-03-13T07:08:54.192Z,99157.31
2023-03-13T07:11:22.253Z,99150.75
2023-03-13T07:13:50.216Z,99136.91
2023-03-13T07:16:18.300Z,99148.88
2023-03-13T07:18:46.410Z,99133.66
2023-03-13T07:21:14.891Z,99129.84
2023-03-13T07:23:42.963Z,99124.13
2023-03-13T07:26:15.110Z,99126.06
2023-03-13T07:28:43.634Z,99132.84
2023-03-13T07:31:16.393Z,99118.72
2023-03-13T07:33:45.896Z,99107.28
2023-03-13T07:36:15.544Z,99123.34
2023-03-13T07:38:44.302Z,99115.44
2023-03-13T07:41:14.470Z,99111.38
2023-03-13T07:43:42.863Z,99101.88
2023-03-13T07:46:13.593Z,99111.41
2023-03-13T07:48:44.028Z,99093.72
2023-03-13T07:51:14.751Z,99114.41
2023-03-13T07:53:42.813Z,99087.19
2023-03-13T07:56:14.005Z,99102.41
2023-03-13T07:58:42.451Z,99098.38
2023-03-13T08:01:11.512Z,99112.22
2023-03-13T08:03:40.527Z,99091.03
2023-03-13T08:06:10.802Z,99097.25
2023-03-13T08:08:39.839Z,99082.31
2023-03-13T08:11:10.699Z,99087.75
2023-03-13T08:13:41.342Z,99080.94
2023-03-13T08:16:11.572Z,99094.25
2023-03-13T08:18:41.479Z,99092.66
2023-03-13T08:21:11.275Z,99091.00
2023-03-13T08:23:39.756Z,99096.19
2023-03-13T08:26:09.959Z,99090.47
2023-03-13T08:28:40.631Z,99077.69
2023-03-13T08:31:10.776Z,99098.63
2023-03-13T08:33:39.249Z,99085.28
2023-03-13T08:36:12.655Z,99082.31
2023-03-13T08:38:42.163Z,99085.31
2023-03-13T08:41:10.168Z,99074.69
2023-03-13T08:43:38.526Z,99058.91
2023-03-13T08:46:08.051Z,99074.69
2023-03-13T08:48:36.179Z,99093.47
2023-03-13T08:51:05.907Z,99083.94
2023-03-13T08:53:34.825Z,99084.19
2023-03-13T08:56:03.081Z,99079.59
2023-03-13T08:58:31.289Z,99076.31
2023-03-13T09:01:03.160Z,99075.50
2023-03-13T09:03:33.093Z,99066.00
2023-03-13T09:06:01.897Z,99075.78
2023-03-13T09:08:32.866Z,99071.16
2023-03-13T09:11:01.332Z,99079.59
2023-03-13T09:13:30.957Z,99078.25
2023-03-13T09:16:00.164Z,99071.16
2023-03-13T09:18:29.399Z,99101.38
2023-03-13T09:20:59.048Z,99086.41
2023-03-13T09:23:27.679Z,99068.97
2023-03-13T09:25:57.839Z,99056.72
2023-03-13T09:28:27.466Z,99077.94
2023-03-13T09:30:55.966Z,99070.88
2023-03-13T09:33:25.008Z,99088.03
2023-03-13T09:35:53.101Z,99055.38
2023-03-13T09:38:22.857Z,99050.19
2023-03-13T09:41:05.368Z,99042.56
2023-03-13T09:43:43.643Z,99053.44
2023-03-13T09:46:17.114Z,99059.97
2023-03-13T09:48:48.155Z,99039.84
2023-03-13T09:51:20.494Z,99058.88
2023-03-13T09:53:55.225Z,99065.94
2023-03-13T09:56:26.153Z,99064.59
2023-03-13T09:58:56.533Z,99052.03
2023-03-13T10:01:29.921Z,99055.56
2023-03-13T10:04:06.617Z,99061.53
2023-03-13T10:06:40.127Z,99063.69
2023-03-13T10:09:20.406Z,99065.59
2023-03-13T10:11:58.947Z,99067.41
2023-03-13T10:14:32.395Z,99061.69
2023-03-13T10:17:08.348Z,99054.59
2023-03-13T10:19:39.164Z,99070.13
2023-03-13T10:22:14.595Z,99084.22
2023-03-13T10:24:50.853Z,99069.25
2023-03-13T10:27:19.326Z,99077.69
2023-03-13T10:29:47.562Z,99057.53
2023-03-13T10:32:17.234Z,99066.53
2023-03-13T10:34:55.483Z,99062.41
2023-03-13T10:37:25.967Z,99059.22
2023-03-13T10:39:55.882Z,99071.47
2023-03-13T10:42:28.944Z,99073.94
2023-03-13T10:44:59.528Z,99078.53
2023-03-13T10:47:27.820Z,99089.44
2023-03-13T10:49:58.074Z,99088.34
2023-03-13T10:52:35.752Z,99100.09
2023-03-13T10:55:08.421Z,99076.13
2023-03-13T10:57:38.042Z,99089.97
2023-03-13T11:00:29.224Z,99110.97
2023-03-13T11:02:57.532Z,99078.50
2023-03-13T11:05:39.546Z,99107.16
2023-03-13T11:08:23.539Z,99085.13
2023-03-13T11:11:04.367Z,99106.31
2023-03-13T11:13:38.127Z,99099.53
2023-03-13T11:16:21.430Z,99095.69
2023-03-13T11:19:03.125Z,99100.31
2023-03-13T11:21:40.405Z,99091.88
2023-03-13T11:24:16.511Z,99082.59
2023-03-13T11:27:03.815Z,99108.25
2023-03-13T11:29:44.234Z,99096.81
2023-03-13T11:32:23.988Z,99075.00
2023-03-13T11:34:58.503Z,99103.59
2023-03-13T11:37:29.835Z,99090.19
2023-03-13T11:40:08.185Z,99090.22
2023-03-13T11:43:06.564Z,99082.59
2023-03-13T11:45:56.611Z,99094.03
2023-03-13T11:48:46.106Z,99070.91
2023-03-13T11:51:22.294Z,99054.31
2023-03-13T11:54:06.500Z,99094.34
2023-03-13T11:56:41.012Z,99072.81
2023-03-13T11:59:27.091Z,99078.81
2023-03-13T12:02:01.949Z,99054.31
2023-03-13T12:04:36.818Z,99066.28
2023-03-13T12:07:08.879Z,99074.19
2023-03-13T12:09:44.385Z,99059.72
2023-03-13T12:12:19.790Z,99041.41
2023-03-13T12:14:54.580Z,99046.56
2023-03-13T12:17:34.583Z,99050.94
2023-03-13T12:20:09.198Z,99037.28
2023-03-13T12:22:41.603Z,99029.72
2023-03-13T12:25:16.469Z,99030.00
2023-03-13T12:27:48.562Z,99041.69
2023-03-13T12:30:28.749Z,99026.69
2023-03-13T12:33:03.390Z,99032.38
2023-03-13T12:35:33.391Z,99026.47
2023-03-13T12:38:09.601Z,99017.22
2023-03-13T12:40:42.446Z,98991.69
2023-03-13T12:43:15.641Z,99003.31
2023-03-13T12:46:05.159Z,98995.59
2023-03-13T12:48:54.533Z,99012.16
2023-03-13T12:51:35.983Z,99000.34
2023-03-13T12:54:26.306Z,98997.09
2023-03-13T12:57:14.322Z,99012.06
2023-03-13T12:59:45.297Z,98980.22
2023-03-13T13:02:21.805Z,98973.94
2023-03-13T13:04:51.822Z,98985.41
2023-03-13T13:07:24.941Z,98982.22
2023-03-13T13:10:16.951Z,98970.50
2023-03-13T13:12:46.685Z,98969.91
2023-03-13T13:15:23.741Z,98959.00
2023-03-13T13:18:24.838Z,98951.97
2023-03-13T13:21:21.278Z,98959.03
2023-03-13T13:23:53.863Z,98962.81
2023-03-13T13:26:51.941Z,98955.63
2023-03-13T13:29:54.042Z,98944.25
2023-03-13T13:32:35.561Z,98963.03
2023-03-13T13:35:07.786Z,98928.72
2023-03-13T13:37:35.795Z,98937.09
2023-03-13T13:40:22.232Z,98944.44
2023-03-13T13:42:53.476Z,98930.25
2023-03-13T13:45:32.000Z,98926.97
2023-03-13T13:48:35.871Z,98906.78
2023-03-13T13:51:25.552Z,98921.66
2023-03-13T13:53:59.824Z,98909.84
2023-03-13T13:56:44.056Z,98894.06
2023-03-13T13:59:34.247Z,98908.28
2023-03-13T14:02:24.061Z,98900.28
2023-03-13T14:05:01.862Z,98879.53
2023-03-13T14:07:38.647Z,98879.03
2023-03-13T14:10:17.943Z,98879.81
2023-03-13T14:12:48.708Z,98890.72
2023-03-13T14:15:20.039Z,98877.88
2023-03-13T14:17:51.913Z,98850.78
2023-03-13T14:20:24.824Z,98862.53
2023-03-13T14:22:56.500Z,98866.06
2023-03-13T14:25:26.219Z,98867.16
2023-03-13T14:27:55.553Z,98873.53
2023-03-13T14:30:25.344Z,98875.66
2023-03-13T14:32:54.521Z,98887.94
2023-03-13T14:35:23.604Z,98852.31
2023-03-13T14:38:02.031Z,98859.56
2023-03-13T14:40:31.662Z,98851.09
2023-03-13T14:43:02.419Z,98865.66
2023-03-13T14:45:35.595Z,98837.69
2023-03-13T14:48:05.527Z,98829.91
2023-03-13T14:50:33.690Z,98829.91
2023-03-13T14:53:12.333Z,98842.16
2023-03-13T14:55:41.184Z,98867.81
2023-03-13T14:58:28.108Z,98849.84
2023-03-13T15:00:58.925Z,98847.63
2023-03-13T15:03:53.122Z,98859.91
2023-03-13T15:07:35.787Z,98881.44
2023-03-13T15:10:20.106Z,98852.06
2023-03-13T15:12:48.527Z,98844.94
2023-03-13T15:15:17.027Z,98860.75
2023-03-13T15:17:45.624Z,98857.75
2023-03-13T15:20:15.432Z,98849.31
2023-03-13T15:22:46.141Z,98856.13
2023-03-13T15:25:19.821Z,98849.00
2023-03-13T15:27:48.382Z,98827.53
2023-03-13T15:30:17.618Z,98824.56
2023-03-13T15:32:47.019Z,98817.53
2023-03-13T15:35:28.392Z,98816.38
2023-03-13T15:37:56.663Z,98806.81
2023-03-13T15:40:27.396Z,98786.31
2023-03-13T15:42:56.240Z,98795.66
2023-03-13T15:46:14.357Z,98777.97
2023-03-13T15:48:42.994Z,98784.00
2023-03-13T15:51:14.766Z,98768.78
2023-03-13T15:53:43.783Z,98768.78
2023-03-13T15:56:16.596Z,98773.38
2023-03-13T15:58:45.450Z,98760.09
2023-03-13T16:01:14.220Z,98748.03
2023-03-13T16:03:43.008Z,98747.13
2023-03-13T16:06:16.577Z,98723.69
2023-03-13T16:08:45.498Z,98718.78
2023-03-13T16:11:17.469Z,98717.44
2023-03-13T16:14:26.487Z,98725.34
2023-03-13T16:16:54.550Z,98728.97
2023-03-13T16:19:22.685Z,98702.47
2023-03-13T16:21:52.686Z,98707.75
2023-03-13T16:24:20.869Z,98712.66
2023-03-13T16:26:50.250Z,98713.88
2023-03-13T16:29:18.492Z,98707.31
2023-03-13T16:31:46.591Z,98700.53
2023-03-13T16:34:14.549Z,98690.50
2023-03-13T16:37:33.260Z,98695.44
2023-03-13T16:40:01.738Z,98679.13
2023-03-13T16:42:31.062Z,98695.25
2023-03-13T16:45:52.083Z,98679.72
2023-03-13T16:48:20.394Z,98669.41
2023-03-13T16:50:48.323Z,98668.09
2023-03-13T16:53:16.283Z,98675.16
2023-03-13T16:55:44.213Z,98662.94
2023-03-13T16:58:13.941Z,98661.28
2023-03-13T17:00:41.896Z,98661.13
2023-03-13T17:03:09.921Z,98666.22
2023-03-13T17:05:40.172Z,98652.72
2023-03-13T17:08:08.194Z,98666.88
2023-03-13T17:10:36.322Z,98656.00
2023-03-13T17:13:05.620Z,98648.94
2023-03-13T17:15:35.105Z,98657.06
2023-03-13T17:18:03.631Z,98648.94
2023-03-13T17:20:31.674Z,98660.41
2023-03-13T17:23:01.090Z,98645.19
2023-03-13T17:25:29.183Z,98651.69
2023-03-13T17:27:57.128Z,98655.56
2023-03-13T17:30:27.383Z,98669.75
2023-03-13T17:32:57.328Z,98646.34
2023-03-13T17:35:25.414Z,98660.25
2023-03-13T17:37:53.717Z,98656.75
2023-03-13T17:40:24.069Z,98660.31
2023-03-13T17:42:52.117Z,98668.28
2023-03-13T17:45:20.705Z,98662.03
2023-03-13T17:47:50.327Z,98651.94
2023-03-13T17:50:21.858Z,98655.84
2023-03-13T17:52:49.936Z,98664.56
2023-03-13T17:55:18.498Z,98646.91
2023-03-13T17:57:47.907Z,98645.03
2023-03-13T18:00:22.897Z,98648.53
2023-03-13T18:02:51.391Z,98659.72
2023-03-13T18:05:20.954Z,98652.38
2023-03-13T18:07:50.603Z,98657.09
2023-03-13T18:10:21.989Z,98665.75
2023-03-13T18:12:51.368Z,98659.00
2023-03-13T18:15:20.337Z,98656.53
2023-03-13T18:17:48.372Z,98650.63
2023-03-13T18:20:18.934Z,98653.56
2023-03-13T18:22:48.396Z,98654.41
2023-03-13T18:25:16.861Z,98659.84
2023-03-13T18:27:44.989Z,98659.34
2023-03-13T18:30:39.547Z,98657.69
2023-03-13T18:33:07.608Z,98656.09
2023-03-13T18:35:35.671Z,98657.16
2023-03-13T18:38:05.185Z,98648.50
2023-03-13T18:40:33.184Z,98647.13
2023-03-13T18:43:01.249Z,98645.78
2023-03-13T18:45:29.444Z,98645.78
2023-03-13T18:47:57.565Z,98636.56
2023-03-13T18:50:28.680Z,98627.03
2023-03-13T18:52:58.375Z,98622.41
2023-03-13T18:55:31.145Z,98613.22
2023-03-13T18:57:59.431Z,98599.91
2023-03-13T19:00:29.571Z,98593.66
2023-03-13T19:02:57.909Z,98594.78
2023-03-13T19:05:26.122Z,98591.25
2023-03-13T19:07:54.186Z,98597.00
2023-03-13T19:10:25.126Z,98579.34
2023-03-13T19:12:55.658Z,98585.09
2023-03-13T19:15:27.154Z,98581.59
2023-03-13T19:17:56.277Z,98580.47
2023-03-13T19:20:24.870Z,98575.84
2023-03-13T19:22:54.522Z,98584.00
2023-03-13T19:25:23.288Z,98593.22
2023-03-13T19:27:51.283Z,98607.09
2023-03-13T19:30:22.712Z,98584.06
2023-03-13T19:32:50.969Z,98594.88
2023-03-13T19:35:21.970Z,98598.69
2023-03-13T19:37:50.629Z,98593.56
2023-03-13T19:40:21.374Z,98590.56
2023-03-13T19:42:49.405Z,98585.94
2023-03-13T19:45:19.747Z,98583.53
2023-03-13T19:47:49.361Z,98572.94
2023-03-13T19:50:21.112Z,98586.78
2023-03-13T19:52:49.414Z,98595.47
2023-03-13T19:55:17.583Z,98589.53
2023-03-13T19:57:45.619Z,98590.09
2023-03-13T20:00:20.530Z,98580.28
2023-03-13T20:02:52.133Z,98590.63
2023-03-13T20:05:20.292Z,98577.06
2023-03-13T20:07:53.328Z,98574.13
2023-03-13T20:10:21.649Z,98581.72
2023-03-13T20:12:49.941Z,98586.84
2023-03-13T20:15:18.286Z,98582.78
2023-03-13T20:17:46.409Z,98580.34
2023-03-13T20:20:16.704Z,98600.97
2023-03-13T20:22:45.803Z,98592.03
2023-03-13T20:25:14.424Z,98600.41
2023-03-13T20:27:42.561Z,98593.94
2023-03-13T20:30:11.920Z,98600.97
2023-03-13T20:32:56.796Z,98595.28
2023-03-13T20:35:28.749Z,98598.81
2023-03-13T20:37:59.836Z,98602.09
2023-03-13T20:40:29.183Z,98599.38
2023-03-13T20:43:23.250Z,98593.69
2023-03-13T20:45:52.731Z,98595.56
2023-03-13T20:48:21.835Z,98599.91
2023-03-13T20:50:52.948Z,98596.66
2023-03-13T20:53:23.073Z,98605.59
2023-03-13T20:55:51.875Z,98595.84
2023-03-13T20:58:20.861Z,98603.19
2023-03-13T21:00:49.679Z,98603.69
2023-03-13T21:03:19.443Z,98602.88
2023-03-13T21:05:47.547Z,98596.66
2023-03-13T21:08:16.856Z,98592.59
2023-03-13T21:10:44.855Z,98592.84
2023-03-13T21:13:13.065Z,98599.91
2023-03-13T21:15:41.497Z,98599.63
2023-03-13T21:18:09.516Z,98592.03
2023-03-13T21:20:39.182Z,98596.66
2023-03-13T21:23:07.228Z,98587.16
2023-03-13T21:25:36.677Z,98594.75
2023-03-13T21:28:04.975Z,98585.31
2023-03-13T21:30:32.972Z,98595.06
2023-03-13T21:33:01.034Z,98597.22
2023-03-13T21:35:29.141Z,98597.22
2023-03-13T21:37:57.173Z,98600.75
2023-03-13T21:40:25.411Z,98609.41
2023-03-13T21:42:54.883Z,98607.22
2023-03-13T21:45:22.917Z,98598.84
2023-03-13T21:47:51.027Z,98593.66
2023-03-13T21:52:48.192Z,98599.94
2023-03-13T21:55:16.144Z,98597.75
2023-03-13T21:57:44.181Z,98602.34
2023-03-13T22:00:15.851Z,98608.59
2023-03-13T22:02:44.620Z,98607.53
2023-03-13T22:05:12.689Z,98605.88
2023-03-13T22:07:40.789Z,98608.59
2023-03-13T22:10:09.720Z,98603.44
2023-03-13T22:12:38.498Z,98607.78
2023-03-13T22:15:07.851Z,98609.13
2023-03-13T22:17:37.406Z,98600.44
2023-03-13T22:20:08.898Z,98605.06
2023-03-13T22:22:37.007Z,98607.00
2023-03-13T22:25:05.601Z,98594.78
2023-03-13T22:27:33.592Z,98608.63
2023-03-13T22:30:01.642Z,98608.34
2023-03-13T22:32:31.259Z,98615.69
2023-03-13T22:35:00.688Z,98608.06
2023-03-13T22:37:28.764Z,98608.88
2023-03-13T22:39:56.816Z,98616.47
2023-03-13T22:42:25.055Z,98610.78
2023-03-13T22:44:55.162Z,98617.84
2023-03-13T22:47:23.864Z,98618.38
2023-03-13T22:49:52.585Z,98613.50
2023-03-13T22:52:28.860Z,98621.63
2023-03-13T22:54:57.530Z,98619.47
2023-03-13T22:57:25.675Z,98618.66
2023-03-13T22:59:53.956Z,98609.69
2023-03-13T23:02:22.234Z,98615.41
2023-03-13T23:04:50.524Z,98611.31
2023-03-13T23:07:18.621Z,98601.53
2023-03-13T23:09:48.040Z,98604.81
2023-03-13T23:12:16.058Z,98602.63
2023-03-13T23:14:44.049Z,98611.88
2023-03-13T23:17:12.234Z,98606.44
2023-03-13T23:19:40.355Z,98604.25
2023-03-13T23:22:08.374Z,98598.56
2023-03-13T23:24:36.367Z,98599.38
2023-03-13T23:27:06.355Z,98602.09
2023-03-13T23:29:34.398Z,98590.16
2023-03-13T23:32:03.168Z,98600.19
2023-03-13T23:34:31.235Z,98602.09
2023-03-13T23:36:59.307Z,98595.03
2023-03-13T23:39:27.273Z,98596.66
2023-03-13T23:41:55.244Z,98608.88
2023-03-13T23:44:24.637Z,98598.28
2023-03-13T23:46:52.648Z,98594.75
2023-03-13T23:49:20.621Z,98601.53
2023-03-13T23:51:48.656Z,98589.06
2023-03-13T23:54:16.613Z,98598.28
2023-03-13T23:56:44.582Z,98603.69
2023-03-13T23:59:12.649Z,98593.94
